Atwood, Kentucky
Current Conditions -  °F | °C
As of 3:52 PM on Tuesday 25 Nov 2014 (Local Time) from KCVG Reporting Station
Broken Clouds Broken Clouds  
Wind Chill: 40°   Ceiling: 25000
Heat Index: 43°   Visibility: 10mi
Dew Point: 27°   Wind: 5mph
Humidity: 53%   Direction: 280°W
Pressure: 30.1"   Gusts: NA
Location:  38.8354°N, 84.5143°W
Report Text: KCVG 252052Z 28004KT 10SM SCT035 BKN250 06/M03 A3010 RMK AO2 SLP195 T00611028 50000
Loading
Personal Weather Stations






























Interactive Weather Map New forecast layout! Learn more

10-Day Weather Forecast

Advertisements
Track Severe Weather on mobile